sensor_id;sensor_type;location;lat;lon;timestamp;P1;durP1;ratioP1;P2;durP2;ratioP2
57752;SDS011;43583;53.132;6.574;2024-02-15T00:01:48;49.55;;;13.32;;
57752;SDS011;43583;53.132;6.574;2024-02-15T00:04:13;44.30;;;12.40;;
57752;SDS011;43583;53.132;6.574;2024-02-15T00:06:39;48.75;;;13.52;;
57752;SDS011;43583;53.132;6.574;2024-02-15T00:09:05;44.72;;;12.40;;
57752;SDS011;43583;53.132;6.574;2024-02-15T00:11:30;47.05;;;12.27;;
57752;SDS011;43583;53.132;6.574;2024-02-15T00:13:57;40.00;;;13.20;;
57752;SDS011;43583;53.132;6.574;2024-02-15T00:16:23;57.38;;;14.02;;
57752;SDS011;43583;53.132;6.574;2024-02-15T00:18:48;49.97;;;15.02;;
57752;SDS011;43583;53.132;6.574;2024-02-15T00:21:14;40.30;;;13.55;;
57752;SDS011;43583;53.132;6.574;2024-02-15T00:23:41;43.00;;;13.88;;
57752;SDS011;43583;53.132;6.574;2024-02-15T00:26:07;47.45;;;13.68;;
57752;SDS011;43583;53.132;6.574;2024-02-15T00:28:35;35.63;;;12.05;;
57752;SDS011;43583;53.132;6.574;2024-02-15T00:31:01;54.33;;;13.05;;
57752;SDS011;43583;53.132;6.574;2024-02-15T00:33:27;52.67;;;13.13;;
57752;SDS011;43583;53.132;6.574;2024-02-15T00:35:54;42.50;;;14.05;;
57752;SDS011;43583;53.132;6.574;2024-02-15T00:38:19;45.15;;;12.48;;
57752;SDS011;43583;53.132;6.574;2024-02-15T00:40:45;40.38;;;11.27;;
57752;SDS011;43583;53.132;6.574;2024-02-15T00:43:11;55.67;;;12.93;;
57752;SDS011;43583;53.132;6.574;2024-02-15T00:45:36;46.65;;;12.68;;
57752;SDS011;43583;53.132;6.574;2024-02-15T00:48:02;41.45;;;12.13;;
57752;SDS011;43583;53.132;6.574;2024-02-15T00:50:28;40.05;;;12.27;;
57752;SDS011;43583;53.132;6.574;2024-02-15T00:52:54;45.97;;;12.90;;
57752;SDS011;43583;53.132;6.574;2024-02-15T00:55:19;42.58;;;12.20;;
57752;SDS011;43583;53.132;6.574;2024-02-15T00:57:45;39.38;;;11.10;;
57752;SDS011;43583;53.132;6.574;2024-02-15T01:00:11;37.53;;;10.45;;
57752;SDS011;43583;53.132;6.574;2024-02-15T01:02:38;39.38;;;11.50;;
57752;SDS011;43583;53.132;6.574;2024-02-15T01:05:03;34.97;;;11.18;;
57752;SDS011;43583;53.132;6.574;2024-02-15T01:07:29;44.95;;;12.20;;
57752;SDS011;43583;53.132;6.574;2024-02-15T01:09:55;38.47;;;10.82;;
57752;SDS011;43583;53.132;6.574;2024-02-15T01:12:20;41.25;;;10.80;;
57752;SDS011;43583;53.132;6.574;2024-02-15T01:14:46;33.53;;;10.90;;
57752;SDS011;43583;53.132;6.574;2024-02-15T01:17:12;30.60;;;10.98;;
57752;SDS011;43583;53.132;6.574;2024-02-15T01:19:38;28.70;;;10.38;;
57752;SDS011;43583;53.132;6.574;2024-02-15T01:22:04;38.95;;;12.38;;
57752;SDS011;43583;53.132;6.574;2024-02-15T01:24:31;29.85;;;9.43;;
57752;SDS011;43583;53.132;6.574;2024-02-15T01:26:57;33.10;;;11.02;;
57752;SDS011;43583;53.132;6.574;2024-02-15T01:29:23;35.67;;;11.35;;
57752;SDS011;43583;53.132;6.574;2024-02-15T01:31:50;31.42;;;10.95;;
57752;SDS011;43583;53.132;6.574;2024-02-15T01:34:17;35.60;;;11.00;;
57752;SDS011;43583;53.132;6.574;2024-02-15T01:36:43;32.53;;;11.45;;
57752;SDS011;43583;53.132;6.574;2024-02-15T01:39:08;32.67;;;11.65;;
57752;SDS011;43583;53.132;6.574;2024-02-15T01:41:34;24.52;;;9.23;;
57752;SDS011;43583;53.132;6.574;2024-02-15T01:43:59;30.02;;;9.68;;
57752;SDS011;43583;53.132;6.574;2024-02-15T01:46:26;31.25;;;10.32;;
57752;SDS011;43583;53.132;6.574;2024-02-15T01:48:52;24.55;;;9.05;;
57752;SDS011;43583;53.132;6.574;2024-02-15T01:51:17;28.30;;;9.32;;
57752;SDS011;43583;53.132;6.574;2024-02-15T01:53:43;29.45;;;9.27;;
57752;SDS011;43583;53.132;6.574;2024-02-15T01:56:10;26.67;;;8.55;;
57752;SDS011;43583;53.132;6.574;2024-02-15T01:58:39;30.27;;;8.77;;
57752;SDS011;43583;53.132;6.574;2024-02-15T02:01:05;24.55;;;8.95;;
57752;SDS011;43583;53.132;6.574;2024-02-15T02:03:31;20.33;;;7.57;;
57752;SDS011;43583;53.132;6.574;2024-02-15T02:05:57;24.95;;;9.43;;
57752;SDS011;43583;53.132;6.574;2024-02-15T02:08:24;19.83;;;7.88;;
57752;SDS011;43583;53.132;6.574;2024-02-15T02:10:50;23.17;;;7.78;;
57752;SDS011;43583;53.132;6.574;2024-02-15T02:13:16;25.48;;;8.48;;
57752;SDS011;43583;53.132;6.574;2024-02-15T02:15:43;20.13;;;8.00;;
57752;SDS011;43583;53.132;6.574;2024-02-15T02:18:09;21.52;;;8.65;;
57752;SDS011;43583;53.132;6.574;2024-02-15T02:20:35;26.60;;;8.27;;
57752;SDS011;43583;53.132;6.574;2024-02-15T02:23:13;21.70;;;7.40;;
57752;SDS011;43583;53.132;6.574;2024-02-15T02:25:40;19.00;;;7.15;;
57752;SDS011;43583;53.132;6.574;2024-02-15T02:28:09;21.88;;;6.75;;
57752;SDS011;43583;53.132;6.574;2024-02-15T02:30:35;15.25;;;6.43;;
57752;SDS011;43583;53.132;6.574;2024-02-15T02:33:01;17.88;;;6.32;;
57752;SDS011;43583;53.132;6.574;2024-02-15T02:35:27;17.90;;;6.30;;
57752;SDS011;43583;53.132;6.574;2024-02-15T02:37:54;16.55;;;6.00;;
57752;SDS011;43583;53.132;6.574;2024-02-15T02:40:20;18.65;;;6.05;;
57752;SDS011;43583;53.132;6.574;2024-02-15T02:42:50;23.67;;;6.97;;
57752;SDS011;43583;53.132;6.574;2024-02-15T02:45:21;16.50;;;5.55;;
57752;SDS011;43583;53.132;6.574;2024-02-15T02:47:50;17.70;;;5.70;;
57752;SDS011;43583;53.132;6.574;2024-02-15T02:50:17;18.08;;;5.68;;
57752;SDS011;43583;53.132;6.574;2024-02-15T02:52:44;13.88;;;5.68;;
57752;SDS011;43583;53.132;6.574;2024-02-15T02:55:09;14.70;;;5.63;;
57752;SDS011;43583;53.132;6.574;2024-02-15T02:57:37;11.63;;;4.93;;
57752;SDS011;43583;53.132;6.574;2024-02-15T03:00:10;11.32;;;5.32;;
57752;SDS011;43583;53.132;6.574;2024-02-15T03:02:38;12.90;;;5.78;;
57752;SDS011;43583;53.132;6.574;2024-02-15T03:05:04;11.50;;;4.97;;
57752;SDS011;43583;53.132;6.574;2024-02-15T03:07:37;15.00;;;5.75;;
57752;SDS011;43583;53.132;6.574;2024-02-15T03:10:05;9.55;;;4.88;;
57752;SDS011;43583;53.132;6.574;2024-02-15T03:12:33;17.38;;;5.68;;
57752;SDS011;43583;53.132;6.574;2024-02-15T03:15:01;11.73;;;5.10;;
57752;SDS011;43583;53.132;6.574;2024-02-15T03:17:27;14.63;;;4.40;;
57752;SDS011;43583;53.132;6.574;2024-02-15T03:19:52;12.98;;;4.43;;
57752;SDS011;43583;53.132;6.574;2024-02-15T03:22:18;14.77;;;4.65;;
57752;SDS011;43583;53.132;6.574;2024-02-15T03:24:44;20.05;;;4.35;;
57752;SDS011;43583;53.132;6.574;2024-02-15T03:27:09;17.90;;;5.10;;
57752;SDS011;43583;53.132;6.574;2024-02-15T03:29:38;13.75;;;4.75;;
57752;SDS011;43583;53.132;6.574;2024-02-15T03:32:03;15.38;;;5.00;;
57752;SDS011;43583;53.132;6.574;2024-02-15T03:34:30;28.27;;;4.75;;
57752;SDS011;43583;53.132;6.574;2024-02-15T03:36:56;17.80;;;4.45;;
57752;SDS011;43583;53.132;6.574;2024-02-15T03:39:23;19.15;;;5.10;;
57752;SDS011;43583;53.132;6.574;2024-02-15T03:41:49;17.15;;;4.57;;
57752;SDS011;43583;53.132;6.574;2024-02-15T03:44:16;18.85;;;4.47;;
57752;SDS011;43583;53.132;6.574;2024-02-15T03:46:43;13.30;;;4.82;;
57752;SDS011;43583;53.132;6.574;2024-02-15T03:49:11;20.33;;;5.00;;
57752;SDS011;43583;53.132;6.574;2024-02-15T03:51:37;19.67;;;4.45;;
57752;SDS011;43583;53.132;6.574;2024-02-15T03:54:03;21.88;;;4.35;;
57752;SDS011;43583;53.132;6.574;2024-02-15T03:56:29;19.23;;;4.68;;
57752;SDS011;43583;53.132;6.574;2024-02-15T03:58:57;17.25;;;4.65;;
57752;SDS011;43583;53.132;6.574;2024-02-15T04:01:23;17.60;;;6.00;;
57752;SDS011;43583;53.132;6.574;2024-02-15T04:03:49;19.85;;;4.13;;
57752;SDS011;43583;53.132;6.574;2024-02-15T04:06:15;16.95;;;5.05;;
57752;SDS011;43583;53.132;6.574;2024-02-15T04:08:40;12.23;;;4.22;;
57752;SDS011;43583;53.132;6.574;2024-02-15T04:11:06;19.25;;;5.05;;
57752;SDS011;43583;53.132;6.574;2024-02-15T04:13:32;20.40;;;5.18;;
57752;SDS011;43583;53.132;6.574;2024-02-15T04:15:58;16.75;;;6.03;;
57752;SDS011;43583;53.132;6.574;2024-02-15T04:18:24;19.98;;;5.28;;
57752;SDS011;43583;53.132;6.574;2024-02-15T04:20:49;18.17;;;5.75;;
57752;SDS011;43583;53.132;6.574;2024-02-15T04:23:16;23.38;;;7.55;;
57752;SDS011;43583;53.132;6.574;2024-02-15T04:25:42;17.77;;;7.72;;
57752;SDS011;43583;53.132;6.574;2024-02-15T04:28:09;21.77;;;6.75;;
57752;SDS011;43583;53.132;6.574;2024-02-15T04:30:35;19.13;;;7.72;;
57752;SDS011;43583;53.132;6.574;2024-02-15T04:33:03;18.23;;;7.47;;
57752;SDS011;43583;53.132;6.574;2024-02-15T04:35:30;22.45;;;6.93;;
57752;SDS011;43583;53.132;6.574;2024-02-15T04:37:56;21.02;;;8.18;;
57752;SDS011;43583;53.132;6.574;2024-02-15T04:40:22;21.13;;;8.10;;
57752;SDS011;43583;53.132;6.574;2024-02-15T04:42:48;23.13;;;9.00;;
57752;SDS011;43583;53.132;6.574;2024-02-15T04:45:14;25.73;;;10.50;;
57752;SDS011;43583;53.132;6.574;2024-02-15T04:47:40;20.08;;;9.05;;
57752;SDS011;43583;53.132;6.574;2024-02-15T04:50:07;21.98;;;10.77;;
57752;SDS011;43583;53.132;6.574;2024-02-15T04:52:34;25.85;;;9.77;;
57752;SDS011;43583;53.132;6.574;2024-02-15T04:54:59;25.17;;;10.75;;
57752;SDS011;43583;53.132;6.574;2024-02-15T04:57:26;26.88;;;10.18;;
57752;SDS011;43583;53.132;6.574;2024-02-15T04:59:53;24.33;;;10.75;;
57752;SDS011;43583;53.132;6.574;2024-02-15T05:02:19;28.75;;;11.95;;
57752;SDS011;43583;53.132;6.574;2024-02-15T05:04:45;21.98;;;11.60;;
57752;SDS011;43583;53.132;6.574;2024-02-15T05:07:10;27.50;;;11.50;;
57752;SDS011;43583;53.132;6.574;2024-02-15T05:09:36;32.50;;;12.02;;
57752;SDS011;43583;53.132;6.574;2024-02-15T05:12:02;27.23;;;11.43;;
57752;SDS011;43583;53.132;6.574;2024-02-15T05:14:29;30.77;;;13.27;;
57752;SDS011;43583;53.132;6.574;2024-02-15T05:16:54;32.35;;;12.13;;
57752;SDS011;43583;53.132;6.574;2024-02-15T05:19:20;28.70;;;11.88;;
57752;SDS011;43583;53.132;6.574;2024-02-15T05:21:46;31.25;;;13.35;;
57752;SDS011;43583;53.132;6.574;2024-02-15T05:24:15;30.75;;;12.48;;
57752;SDS011;43583;53.132;6.574;2024-02-15T05:26:44;29.35;;;13.07;;
57752;SDS011;43583;53.132;6.574;2024-02-15T05:29:16;32.83;;;13.02;;
57752;SDS011;43583;53.132;6.574;2024-02-15T05:31:42;28.55;;;13.30;;
57752;SDS011;43583;53.132;6.574;2024-02-15T05:34:09;30.00;;;13.25;;
57752;SDS011;43583;53.132;6.574;2024-02-15T05:36:37;26.85;;;12.50;;
57752;SDS011;43583;53.132;6.574;2024-02-15T05:39:03;29.67;;;13.13;;
57752;SDS011;43583;53.132;6.574;2024-02-15T05:41:30;29.83;;;12.93;;
57752;SDS011;43583;53.132;6.574;2024-02-15T05:43:57;30.48;;;12.75;;
57752;SDS011;43583;53.132;6.574;2024-02-15T05:46:23;30.92;;;12.30;;
57752;SDS011;43583;53.132;6.574;2024-02-15T05:48:49;29.20;;;13.77;;
57752;SDS011;43583;53.132;6.574;2024-02-15T05:51:16;30.77;;;13.52;;
57752;SDS011;43583;53.132;6.574;2024-02-15T05:53:42;33.75;;;13.77;;
57752;SDS011;43583;53.132;6.574;2024-02-15T05:56:09;33.53;;;15.65;;
57752;SDS011;43583;53.132;6.574;2024-02-15T05:58:38;31.63;;;14.95;;
57752;SDS011;43583;53.132;6.574;2024-02-15T06:01:06;36.78;;;14.75;;
57752;SDS011;43583;53.132;6.574;2024-02-15T06:03:35;34.05;;;16.02;;
57752;SDS011;43583;53.132;6.574;2024-02-15T06:06:03;34.80;;;15.25;;
57752;SDS011;43583;53.132;6.574;2024-02-15T06:08:36;39.08;;;15.05;;
57752;SDS011;43583;53.132;6.574;2024-02-15T06:11:03;34.42;;;14.55;;
57752;SDS011;43583;53.132;6.574;2024-02-15T06:13:30;35.30;;;15.65;;
57752;SDS011;43583;53.132;6.574;2024-02-15T06:15:56;30.75;;;14.38;;
57752;SDS011;43583;53.132;6.574;2024-02-15T06:18:26;37.50;;;15.27;;
57752;SDS011;43583;53.132;6.574;2024-02-15T06:20:57;34.78;;;17.13;;
57752;SDS011;43583;53.132;6.574;2024-02-15T06:23:25;34.03;;;14.52;;
57752;SDS011;43583;53.132;6.574;2024-02-15T06:25:52;32.35;;;14.73;;
57752;SDS011;43583;53.132;6.574;2024-02-15T06:28:23;37.90;;;15.73;;
57752;SDS011;43583;53.132;6.574;2024-02-15T06:31:10;29.95;;;14.95;;
57752;SDS011;43583;53.132;6.574;2024-02-15T06:33:55;33.85;;;15.70;;
57752;SDS011;43583;53.132;6.574;2024-02-15T06:36:40;35.83;;;16.93;;
57752;SDS011;43583;53.132;6.574;2024-02-15T06:39:29;37.97;;;16.98;;
57752;SDS011;43583;53.132;6.574;2024-02-15T06:42:11;35.30;;;15.40;;
57752;SDS011;43583;53.132;6.574;2024-02-15T06:44:41;38.65;;;15.82;;
57752;SDS011;43583;53.132;6.574;2024-02-15T06:47:10;36.00;;;17.33;;
57752;SDS011;43583;53.132;6.574;2024-02-15T06:49:36;37.97;;;15.98;;
57752;SDS011;43583;53.132;6.574;2024-02-15T06:52:08;31.08;;;15.27;;
57752;SDS011;43583;53.132;6.574;2024-02-15T06:54:36;32.63;;;16.13;;
57752;SDS011;43583;53.132;6.574;2024-02-15T06:57:03;36.80;;;17.02;;
57752;SDS011;43583;53.132;6.574;2024-02-15T06:59:29;37.75;;;16.58;;
57752;SDS011;43583;53.132;6.574;2024-02-15T07:01:57;31.55;;;15.65;;
57752;SDS011;43583;53.132;6.574;2024-02-15T07:04:23;36.75;;;16.63;;
57752;SDS011;43583;53.132;6.574;2024-02-15T07:06:50;33.22;;;15.27;;
57752;SDS011;43583;53.132;6.574;2024-02-15T07:09:19;31.20;;;14.77;;
57752;SDS011;43583;53.132;6.574;2024-02-15T07:11:49;35.83;;;16.25;;
57752;SDS011;43583;53.132;6.574;2024-02-15T07:14:17;33.35;;;15.50;;
57752;SDS011;43583;53.132;6.574;2024-02-15T07:16:47;29.75;;;15.65;;
57752;SDS011;43583;53.132;6.574;2024-02-15T07:19:14;34.85;;;16.48;;
57752;SDS011;43583;53.132;6.574;2024-02-15T07:21:41;29.45;;;15.10;;
57752;SDS011;43583;53.132;6.574;2024-02-15T07:24:07;31.38;;;14.85;;
57752;SDS011;43583;53.132;6.574;2024-02-15T07:26:32;31.95;;;15.55;;
57752;SDS011;43583;53.132;6.574;2024-02-15T07:29:00;31.35;;;14.32;;
57752;SDS011;43583;53.132;6.574;2024-02-15T07:31:29;35.63;;;15.95;;
57752;SDS011;43583;53.132;6.574;2024-02-15T07:33:55;35.42;;;15.80;;
57752;SDS011;43583;53.132;6.574;2024-02-15T07:36:21;31.15;;;14.45;;
57752;SDS011;43583;53.132;6.574;2024-02-15T07:38:48;35.95;;;15.45;;
57752;SDS011;43583;53.132;6.574;2024-02-15T07:41:17;32.63;;;13.85;;
57752;SDS011;43583;53.132;6.574;2024-02-15T07:43:44;29.83;;;14.50;;
57752;SDS011;43583;53.132;6.574;2024-02-15T07:46:12;36.20;;;15.63;;
57752;SDS011;43583;53.132;6.574;2024-02-15T07:48:44;28.23;;;14.15;;
57752;SDS011;43583;53.132;6.574;2024-02-15T07:51:14;28.52;;;13.43;;
57752;SDS011;43583;53.132;6.574;2024-02-15T07:53:41;24.50;;;14.07;;
57752;SDS011;43583;53.132;6.574;2024-02-15T07:56:08;26.30;;;13.50;;
57752;SDS011;43583;53.132;6.574;2024-02-15T07:58:37;26.75;;;12.40;;
57752;SDS011;43583;53.132;6.574;2024-02-15T08:01:04;29.70;;;12.85;;
57752;SDS011;43583;53.132;6.574;2024-02-15T08:03:30;30.20;;;13.05;;
57752;SDS011;43583;53.132;6.574;2024-02-15T08:05:56;28.80;;;12.90;;
57752;SDS011;43583;53.132;6.574;2024-02-15T08:08:21;21.90;;;11.40;;
57752;SDS011;43583;53.132;6.574;2024-02-15T08:10:47;21.92;;;12.05;;
57752;SDS011;43583;53.132;6.574;2024-02-15T08:13:16;25.50;;;12.43;;
57752;SDS011;43583;53.132;6.574;2024-02-15T08:15:42;24.17;;;11.75;;
57752;SDS011;43583;53.132;6.574;2024-02-15T08:18:09;25.13;;;11.32;;
57752;SDS011;43583;53.132;6.574;2024-02-15T08:20:37;22.85;;;10.60;;
57752;SDS011;43583;53.132;6.574;2024-02-15T08:23:05;24.42;;;11.73;;
57752;SDS011;43583;53.132;6.574;2024-02-15T08:25:31;20.63;;;10.93;;
57752;SDS011;43583;53.132;6.574;2024-02-15T08:27:57;20.75;;;11.68;;
57752;SDS011;43583;53.132;6.574;2024-02-15T08:30:22;28.50;;;11.88;;
57752;SDS011;43583;53.132;6.574;2024-02-15T08:32:48;30.83;;;10.60;;
57752;SDS011;43583;53.132;6.574;2024-02-15T08:35:14;23.83;;;10.45;;
57752;SDS011;43583;53.132;6.574;2024-02-15T08:37:40;23.52;;;11.10;;
57752;SDS011;43583;53.132;6.574;2024-02-15T08:40:10;22.95;;;10.13;;
57752;SDS011;43583;53.132;6.574;2024-02-15T08:42:40;19.92;;;10.10;;
57752;SDS011;43583;53.132;6.574;2024-02-15T08:45:06;26.73;;;10.05;;
57752;SDS011;43583;53.132;6.574;2024-02-15T08:47:36;18.30;;;8.82;;
57752;SDS011;43583;53.132;6.574;2024-02-15T08:50:02;16.98;;;9.00;;
57752;SDS011;43583;53.132;6.574;2024-02-15T08:52:28;18.13;;;10.13;;
57752;SDS011;43583;53.132;6.574;2024-02-15T08:54:54;17.52;;;8.18;;
57752;SDS011;43583;53.132;6.574;2024-02-15T08:57:22;19.85;;;9.30;;
57752;SDS011;43583;53.132;6.574;2024-02-15T08:59:48;17.02;;;8.75;;
57752;SDS011;43583;53.132;6.574;2024-02-15T09:02:13;17.02;;;9.55;;
57752;SDS011;43583;53.132;6.574;2024-02-15T09:04:39;17.95;;;9.65;;
57752;SDS011;43583;53.132;6.574;2024-02-15T09:07:06;19.85;;;8.57;;
57752;SDS011;43583;53.132;6.574;2024-02-15T09:09:32;16.10;;;8.80;;
57752;SDS011;43583;53.132;6.574;2024-02-15T09:12:00;16.70;;;10.00;;
57752;SDS011;43583;53.132;6.574;2024-02-15T09:14:30;16.02;;;9.32;;
57752;SDS011;43583;53.132;6.574;2024-02-15T09:16:59;17.48;;;9.93;;
57752;SDS011;43583;53.132;6.574;2024-02-15T09:19:25;22.80;;;9.93;;
57752;SDS011;43583;53.132;6.574;2024-02-15T09:21:50;18.50;;;8.80;;
57752;SDS011;43583;53.132;6.574;2024-02-15T09:24:16;14.70;;;9.55;;
57752;SDS011;43583;53.132;6.574;2024-02-15T09:26:44;28.08;;;10.68;;
57752;SDS011;43583;53.132;6.574;2024-02-15T09:29:12;17.45;;;10.07;;
57752;SDS011;43583;53.132;6.574;2024-02-15T09:31:38;17.15;;;9.68;;
57752;SDS011;43583;53.132;6.574;2024-02-15T09:34:05;17.73;;;8.90;;
57752;SDS011;43583;53.132;6.574;2024-02-15T09:36:35;18.77;;;9.52;;
57752;SDS011;43583;53.132;6.574;2024-02-15T09:39:03;17.45;;;10.20;;
57752;SDS011;43583;53.132;6.574;2024-02-15T09:41:29;17.55;;;8.93;;
57752;SDS011;43583;53.132;6.574;2024-02-15T09:43:55;18.98;;;9.38;;
57752;SDS011;43583;53.132;6.574;2024-02-15T09:46:22;19.98;;;9.73;;
57752;SDS011;43583;53.132;6.574;2024-02-15T09:48:50;17.58;;;9.88;;
57752;SDS011;43583;53.132;6.574;2024-02-15T09:51:19;20.80;;;9.80;;
57752;SDS011;43583;53.132;6.574;2024-02-15T09:53:46;18.13;;;9.20;;
57752;SDS011;43583;53.132;6.574;2024-02-15T09:56:12;15.38;;;8.60;;
57752;SDS011;43583;53.132;6.574;2024-02-15T09:58:40;16.35;;;8.70;;
57752;SDS011;43583;53.132;6.574;2024-02-15T10:01:06;15.50;;;7.90;;
57752;SDS011;43583;53.132;6.574;2024-02-15T10:03:38;16.00;;;8.50;;
57752;SDS011;43583;53.132;6.574;2024-02-15T10:06:07;14.20;;;8.10;;
57752;SDS011;43583;53.132;6.574;2024-02-15T10:08:33;12.45;;;7.43;;
57752;SDS011;43583;53.132;6.574;2024-02-15T10:11:05;16.20;;;8.48;;
57752;SDS011;43583;53.132;6.574;2024-02-15T10:13:33;13.60;;;6.38;;
57752;SDS011;43583;53.132;6.574;2024-02-15T10:15:59;12.90;;;6.50;;
57752;SDS011;43583;53.132;6.574;2024-02-15T10:18:25;11.95;;;6.25;;
57752;SDS011;43583;53.132;6.574;2024-02-15T10:20:57;11.82;;;6.13;;
57752;SDS011;43583;53.132;6.574;2024-02-15T10:23:23;10.82;;;5.97;;
57752;SDS011;43583;53.132;6.574;2024-02-15T10:25:48;15.85;;;6.13;;
57752;SDS011;43583;53.132;6.574;2024-02-15T10:28:14;10.80;;;6.28;;
57752;SDS011;43583;53.132;6.574;2024-02-15T10:30:48;11.13;;;5.72;;
57752;SDS011;43583;53.132;6.574;2024-02-15T10:33:18;11.30;;;6.07;;
57752;SDS011;43583;53.132;6.574;2024-02-15T10:35:51;10.48;;;5.78;;
57752;SDS011;43583;53.132;6.574;2024-02-15T10:38:31;22.98;;;6.15;;
57752;SDS011;43583;53.132;6.574;2024-02-15T10:41:02;9.40;;;5.47;;
57752;SDS011;43583;53.132;6.574;2024-02-15T10:43:35;12.68;;;6.18;;
57752;SDS011;43583;53.132;6.574;2024-02-15T10:46:04;13.32;;;5.35;;
57752;SDS011;43583;53.132;6.574;2024-02-15T10:48:32;10.52;;;4.82;;
57752;SDS011;43583;53.132;6.574;2024-02-15T10:50:59;11.60;;;4.75;;
57752;SDS011;43583;53.132;6.574;2024-02-15T10:53:28;8.30;;;4.88;;
57752;SDS011;43583;53.132;6.574;2024-02-15T10:58:32;8.52;;;4.13;;
57752;SDS011;43583;53.132;6.574;2024-02-15T11:01:00;6.15;;;4.25;;
57752;SDS011;43583;53.132;6.574;2024-02-15T11:03:40;6.95;;;3.97;;
57752;SDS011;43583;53.132;6.574;2024-02-15T11:06:14;6.70;;;4.07;;
57752;SDS011;43583;53.132;6.574;2024-02-15T11:08:41;6.55;;;3.40;;
57752;SDS011;43583;53.132;6.574;2024-02-15T11:11:09;8.07;;;3.95;;
57752;SDS011;43583;53.132;6.574;2024-02-15T11:13:38;8.85;;;3.80;;
57752;SDS011;43583;53.132;6.574;2024-02-15T11:16:03;5.03;;;3.58;;
57752;SDS011;43583;53.132;6.574;2024-02-15T11:18:42;6.70;;;4.18;;
57752;SDS011;43583;53.132;6.574;2024-02-15T11:21:16;4.97;;;3.70;;
57752;SDS011;43583;53.132;6.574;2024-02-15T11:23:43;5.07;;;3.08;;
57752;SDS011;43583;53.132;6.574;2024-02-15T11:26:10;5.25;;;3.70;;
57752;SDS011;43583;53.132;6.574;2024-02-15T11:29:08;5.38;;;3.35;;
57752;SDS011;43583;53.132;6.574;2024-02-15T11:40:22;3.17;;;2.53;;
57752;SDS011;43583;53.132;6.574;2024-02-15T11:42:55;3.58;;;2.38;;
57752;SDS011;43583;53.132;6.574;2024-02-15T11:45:28;3.17;;;1.73;;
57752;SDS011;43583;53.132;6.574;2024-02-15T11:48:13;1.88;;;1.30;;
57752;SDS011;43583;53.132;6.574;2024-02-15T11:50:39;2.47;;;1.33;;
57752;SDS011;43583;53.132;6.574;2024-02-15T11:53:06;1.92;;;1.10;;
57752;SDS011;43583;53.132;6.574;2024-02-15T11:55:36;3.03;;;1.52;;
57752;SDS011;43583;53.132;6.574;2024-02-15T11:58:05;2.22;;;1.33;;
57752;SDS011;43583;53.132;6.574;2024-02-15T12:00:36;2.97;;;1.00;;
57752;SDS011;43583;53.132;6.574;2024-02-15T12:03:20;1.50;;;1.08;;
57752;SDS011;43583;53.132;6.574;2024-02-15T12:06:05;1.48;;;0.65;;
57752;SDS011;43583;53.132;6.574;2024-02-15T12:08:50;1.23;;;0.60;;
57752;SDS011;43583;53.132;6.574;2024-02-15T12:11:35;1.50;;;0.80;;
57752;SDS011;43583;53.132;6.574;2024-02-15T12:14:20;1.00;;;0.50;;
57752;SDS011;43583;53.132;6.574;2024-02-15T12:17:09;1.38;;;0.65;;
57752;SDS011;43583;53.132;6.574;2024-02-15T12:19:54;2.22;;;0.60;;
57752;SDS011;43583;53.132;6.574;2024-02-15T12:24:58;2.88;;;0.93;;
57752;SDS011;43583;53.132;6.574;2024-02-15T12:27:25;2.03;;;1.10;;
57752;SDS011;43583;53.132;6.574;2024-02-15T12:30:01;1.90;;;0.85;;
57752;SDS011;43583;53.132;6.574;2024-02-15T12:32:30;1.30;;;0.70;;
57752;SDS011;43583;53.132;6.574;2024-02-15T12:35:09;1.95;;;1.13;;
57752;SDS011;43583;53.132;6.574;2024-02-15T12:38:01;1.50;;;0.82;;
57752;SDS011;43583;53.132;6.574;2024-02-15T12:40:31;4.03;;;2.00;;
57752;SDS011;43583;53.132;6.574;2024-02-15T12:42:58;4.88;;;1.83;;
57752;SDS011;43583;53.132;6.574;2024-02-15T12:45:30;3.35;;;2.10;;
57752;SDS011;43583;53.132;6.574;2024-02-15T12:47:56;3.38;;;2.05;;
57752;SDS011;43583;53.132;6.574;2024-02-15T12:50:31;3.88;;;2.35;;
57752;SDS011;43583;53.132;6.574;2024-02-15T12:55:31;3.67;;;2.38;;
57752;SDS011;43583;53.132;6.574;2024-02-15T12:58:04;3.88;;;2.88;;
57752;SDS011;43583;53.132;6.574;2024-02-15T13:00:34;4.50;;;2.47;;
57752;SDS011;43583;53.132;6.574;2024-02-15T13:03:05;4.82;;;3.22;;
57752;SDS011;43583;53.132;6.574;2024-02-15T13:05:34;6.43;;;4.07;;
57752;SDS011;43583;53.132;6.574;2024-02-15T13:08:04;7.72;;;4.38;;
57752;SDS011;43583;53.132;6.574;2024-02-15T13:10:34;5.45;;;3.75;;
57752;SDS011;43583;53.132;6.574;2024-02-15T13:13:00;7.25;;;4.38;;
57752;SDS011;43583;53.132;6.574;2024-02-15T13:15:26;7.20;;;3.92;;
57752;SDS011;43583;53.132;6.574;2024-02-15T13:17:55;7.40;;;4.47;;
57752;SDS011;43583;53.132;6.574;2024-02-15T13:20:21;7.05;;;4.05;;
57752;SDS011;43583;53.132;6.574;2024-02-15T13:23:04;7.13;;;4.55;;
57752;SDS011;43583;53.132;6.574;2024-02-15T13:25:35;8.85;;;4.65;;
57752;SDS011;43583;53.132;6.574;2024-02-15T13:28:04;6.65;;;4.53;;
57752;SDS011;43583;53.132;6.574;2024-02-15T13:30:30;8.27;;;4.75;;
57752;SDS011;43583;53.132;6.574;2024-02-15T13:32:57;6.88;;;4.80;;
57752;SDS011;43583;53.132;6.574;2024-02-15T13:35:23;9.00;;;5.15;;
57752;SDS011;43583;53.132;6.574;2024-02-15T13:37:55;6.60;;;4.53;;
57752;SDS011;43583;53.132;6.574;2024-02-15T13:40:23;9.18;;;4.68;;
57752;SDS011;43583;53.132;6.574;2024-02-15T13:42:54;6.10;;;4.50;;
57752;SDS011;43583;53.132;6.574;2024-02-15T13:45:24;8.98;;;5.07;;
57752;SDS011;43583;53.132;6.574;2024-02-15T13:47:56;11.77;;;4.70;;
57752;SDS011;43583;53.132;6.574;2024-02-15T13:50:22;6.28;;;4.38;;
57752;SDS011;43583;53.132;6.574;2024-02-15T13:52:49;7.43;;;5.15;;
57752;SDS011;43583;53.132;6.574;2024-02-15T13:55:18;6.90;;;4.30;;
57752;SDS011;43583;53.132;6.574;2024-02-15T13:57:45;4.95;;;3.65;;
57752;SDS011;43583;53.132;6.574;2024-02-15T14:00:12;6.85;;;4.43;;
57752;SDS011;43583;53.132;6.574;2024-02-15T14:02:47;7.07;;;4.50;;
57752;SDS011;43583;53.132;6.574;2024-02-15T14:05:17;5.43;;;3.90;;
57752;SDS011;43583;53.132;6.574;2024-02-15T14:07:46;7.00;;;3.35;;
57752;SDS011;43583;53.132;6.574;2024-02-15T14:10:13;5.07;;;3.03;;
57752;SDS011;43583;53.132;6.574;2024-02-15T14:12:39;4.40;;;2.78;;
57752;SDS011;43583;53.132;6.574;2024-02-15T14:15:04;4.15;;;3.05;;
57752;SDS011;43583;53.132;6.574;2024-02-15T14:17:31;3.55;;;2.65;;
57752;SDS011;43583;53.132;6.574;2024-02-15T14:19:57;3.92;;;2.75;;
57752;SDS011;43583;53.132;6.574;2024-02-15T14:22:23;3.85;;;2.75;;
57752;SDS011;43583;53.132;6.574;2024-02-15T14:24:49;3.33;;;2.85;;
57752;SDS011;43583;53.132;6.574;2024-02-15T14:27:15;5.03;;;2.85;;
57752;SDS011;43583;53.132;6.574;2024-02-15T14:29:41;4.20;;;2.47;;
57752;SDS011;43583;53.132;6.574;2024-02-15T14:32:26;8.05;;;3.70;;
57752;SDS011;43583;53.132;6.574;2024-02-15T14:35:10;8.82;;;3.80;;
57752;SDS011;43583;53.132;6.574;2024-02-15T14:37:36;5.05;;;3.20;;
57752;SDS011;43583;53.132;6.574;2024-02-15T14:40:05;6.68;;;4.25;;
57752;SDS011;43583;53.132;6.574;2024-02-15T14:42:32;6.28;;;4.07;;
57752;SDS011;43583;53.132;6.574;2024-02-15T14:44:59;7.70;;;4.72;;
57752;SDS011;43583;53.132;6.574;2024-02-15T14:47:25;9.32;;;5.13;;
57752;SDS011;43583;53.132;6.574;2024-02-15T14:49:50;9.32;;;5.10;;
57752;SDS011;43583;53.132;6.574;2024-02-15T14:52:16;8.27;;;4.82;;
57752;SDS011;43583;53.132;6.574;2024-02-15T14:54:43;14.25;;;5.18;;
57752;SDS011;43583;53.132;6.574;2024-02-15T14:57:08;9.70;;;4.68;;